Saint Paul, MN (55101)

10:46 AM CDT on October 22, 2014 (GMT -0500)
Villa Park Overlook | Change Station
CLOSE
Current Station
Personal Weather Station
Location: Roseville, MN
Elevation: 965 ft
Nearby Weather Stations

Elev 965 ft 45.00 °N, 93.12 °W | Updated 1 minute ago

Partly Cloudy
Partly Cloudy
47.7 °F
Feels Like 45 °F
N
6.0
Wind Variable Wind from South
Gusts 15.0 mph

Today
High -- | Low -- °F
--% Chance of Precip.
Yesterday
High -- | Low -- °F
Precip. -- in
7:37 AM 6:15 PM
Waning Crescent, 2% visible
Pressure 30.22 in
Visibility 10.0 miles
Clouds Few 6000 ft
Windchill 45 °F
Dew Point 41 °F
Humidity 78%
Rainfall 0.00 in
Snow Depth Not available.
UV 1 out of 12
Pollen .10 out of 12
Ozone Good
PM2.5 Good
Flu Activity Sporadic
METAR KSTP 221453Z 14014G20KT 10SM FEW060 08/03 A3021 RMK AO2 SLP231 T00780033 58009

More Conditions Fewer Conditions

Pressure 30.22 in
Visibility 10.0 miles
Clouds Few 6000 ft
Windchill 45 °F
Dew Point 41 °F
Humidity 78%
Rainfall 0.00 in
Snow Depth Not available.
UV 1 out of 12
Pollen .10 out of 12
Ozone Good
PM2.5 Good
Flu Activity Sporadic
METAR KSTP 221453Z 14014G20KT 10SM FEW060 08/03 A3021 RMK AO2 SLP231 T00780033 58009

More Conditions Fewer Conditions

10-Day Weather Forecast

Almanac

Astronomy

Oct. 22, 2014 Rise Set
Actual Time 7:37 AM CDT 6:15 PM CDT
Civil Twilight 7:07 AM CDT 6:45 PM CDT
Nautical Twilight 6:33 AM CDT 7:19 PM CDT
Astronomical Twilight 5:59 AM CDT 7:53 PM CDT
Moon 6:15 AM CDT 5:44 PM CDT
Length of Visible Light 11h 38m
Length of Day
10h 38m
Tomorrow will be 2m 57s shorter.
Waning Crescent, 2% of the Moon is Illuminated
Today
Waning Crescent
Oct 23
New
Oct 30
First Quarter
Nov 6
Full
Nov 14
Last Quarter

Today's Extremes

State Highs State Lows

Community

WunderPhotos

Upload Photos

1,763,953 photos uploaded!

Nearby

Air Quality

  Air Quality AQ Index Pollutant
Yesterday Good
PM2.5
Yesterday Good
OZONE
Current Good
PM2.5
Current Good
OZONE
Wednesday Good
PM2.5
Thursday Good
PM2.5
Friday Moderate
PM2.5
Saturday Moderate
PM2.5
Sunday Moderate
PM2.5

Snow Depth

Station Depth Elevation
No new snow has been reported.

Earthquake Activity

City Distance Mag. Time & Date
No recent earthquake activity has been reported nearby.
Minimum magnitude displayed is 2.5.

Coastal Water Temperatures

Place Temperature
No Stations Reporting

Nearby Weather Stations